Main page
METAR-TAF:

METAR-TAF

Airports :

Taba International Airport

Taba, Egypt

latitude: 29-35-57N, longitude: 034-46-36E, elevation: 749 m

METAR: missing

Time: 19:59 (17:59 UTC)

Forecast

The report was made 59 minutes ago, at 17:00 UTC
Forecast valid from 16 at 18 UTC to 17 at 24 UTC
Wind 15 kt from the North/Northeast
Visibility 10 km or more
no clouds below 1500 m and no cumulonimbus

TAF: HETB 161700Z 1618/1724 03015KT CAVOK

Weather observations and forecasts of more than 4000 airports (METAR and TAF reports).

The available stations are represented by yellow and red dots on the map.

Hover mouse over dot to see the name of the station.

Then click to see weather observations and forecasts.

To change the map : click on the green buttons with a black cross to zoom in, on the green button with a dash to zoom out, or on the green arrows for adjacent maps.


METAR-TAF: